EYPA/PLQ METAR and TAF weather

Enter ICAO airport designator
Station Type Date Time Source
EYPA METAR 2021/08/04 18:50 UTC NOAA

EYPA 041850Z 35004KT 320V020 CAVOK 16/11 Q1014


Station Type Date Time Source
EYPA Decoded METAR 2021/08/04 18:50 UTC NOAA

Palanga Intl., Lithuania (EYPA) 55-55-12N 021-03E
Aug 04, 2021 - 02:50 PM EDT / 2021.08.04 1850 UTC
Wind: from the N (350 degrees) at 5 MPH (4 KT) (direction variable):0
Visibility: greater than 7 mile(s):0
Temperature: 60 F (16 C)
Dew Point: 51 F (11 C)
Relative Humidity: 72%
Pressure (altimeter): 29.94 in. Hg (1014 hPa)
ob: EYPA 041850Z 35004KT 320V020 CAVOK 16/11 Q1014
cycle: 19

Station Type Date Time Source
EYPA TAF 2021/08/04 18:03 UTC NOAA

TAF EYPA 041700Z 0418/0518 VRB05KT 7000 SCT035 PROB40
TEMPO 0418/0421 BKN030CB
TEMPO 0506/0509 SCT010
BECMG 0509/0510 BKN030

Example: see airport list